sensor_id;sensor_type;location;lat;lon;timestamp;temperature;humidity
69204;DHT22;56317;27.658;85.326;2022-12-18T00:03:56;7.20;99.90
69204;DHT22;56317;27.658;85.326;2022-12-18T00:06:25;7.20;99.90
69204;DHT22;56317;27.658;85.326;2022-12-18T00:08:54;7.20;99.90
69204;DHT22;56317;27.658;85.326;2022-12-18T00:11:25;7.20;99.90
69204;DHT22;56317;27.658;85.326;2022-12-18T00:13:54;7.20;99.90
69204;DHT22;56317;27.658;85.326;2022-12-18T00:16:23;7.10;99.90
69204;DHT22;56317;27.658;85.326;2022-12-18T00:18:54;7.10;99.90
69204;DHT22;56317;27.658;85.326;2022-12-18T00:21:21;7.10;99.90
69204;DHT22;56317;27.658;85.326;2022-12-18T00:23:50;7.10;99.90
69204;DHT22;56317;27.658;85.326;2022-12-18T00:26:28;7.10;99.90
69204;DHT22;56317;27.658;85.326;2022-12-18T00:28:59;7.10;99.90
69204;DHT22;56317;27.658;85.326;2022-12-18T00:31:27;7.10;99.90
69204;DHT22;56317;27.658;85.326;2022-12-18T00:33:55;7.10;99.90
69204;DHT22;56317;27.658;85.326;2022-12-18T00:36:25;7.10;99.90
69204;DHT22;56317;27.658;85.326;2022-12-18T00:38:54;7.10;99.90
69204;DHT22;56317;27.658;85.326;2022-12-18T00:41:23;7.10;99.90
69204;DHT22;56317;27.658;85.326;2022-12-18T00:44:12;7.10;99.90
69204;DHT22;56317;27.658;85.326;2022-12-18T00:46:40;7.10;99.90
69204;DHT22;56317;27.658;85.326;2022-12-18T00:49:07;7.10;99.90
69204;DHT22;56317;27.658;85.326;2022-12-18T00:51:35;7.20;99.90
69204;DHT22;56317;27.658;85.326;2022-12-18T00:54:02;7.20;99.90
69204;DHT22;56317;27.658;85.326;2022-12-18T00:56:29;7.20;99.90
69204;DHT22;56317;27.658;85.326;2022-12-18T00:58:56;7.20;99.90
69204;DHT22;56317;27.658;85.326;2022-12-18T01:01:23;7.20;99.90
69204;DHT22;56317;27.658;85.326;2022-12-18T01:03:51;7.20;99.90
69204;DHT22;56317;27.658;85.326;2022-12-18T01:06:18;7.30;99.90
69204;DHT22;56317;27.658;85.326;2022-12-18T01:08:45;7.30;99.90
69204;DHT22;56317;27.658;85.326;2022-12-18T01:11:15;7.40;99.90
69204;DHT22;56317;27.658;85.326;2022-12-18T01:13:43;7.40;99.90
69204;DHT22;56317;27.658;85.326;2022-12-18T01:16:15;7.40;99.90
69204;DHT22;56317;27.658;85.326;2022-12-18T01:18:43;7.40;99.90
69204;DHT22;56317;27.658;85.326;2022-12-18T01:21:13;7.50;99.90
69204;DHT22;56317;27.658;85.326;2022-12-18T01:23:45;7.60;99.90
69204;DHT22;56317;27.658;85.326;2022-12-18T01:26:16;7.70;99.90
69204;DHT22;56317;27.658;85.326;2022-12-18T01:28:43;7.70;99.90
69204;DHT22;56317;27.658;85.326;2022-12-18T01:31:27;7.80;99.90
69204;DHT22;56317;27.658;85.326;2022-12-18T01:33:55;7.90;99.90
69204;DHT22;56317;27.658;85.326;2022-12-18T01:36:32;8.00;99.90
69204;DHT22;56317;27.658;85.326;2022-12-18T01:39:02;8.10;99.90
69204;DHT22;56317;27.658;85.326;2022-12-18T01:41:31;8.20;99.90
69204;DHT22;56317;27.658;85.326;2022-12-18T01:47:43;8.40;99.90
69204;DHT22;56317;27.658;85.326;2022-12-18T01:50:17;8.50;99.90
69204;DHT22;56317;27.658;85.326;2022-12-18T01:53:02;8.60;99.90
69204;DHT22;56317;27.658;85.326;2022-12-18T01:55:34;8.70;99.90
69204;DHT22;56317;27.658;85.326;2022-12-18T01:58:02;8.90;99.90
69204;DHT22;56317;27.658;85.326;2022-12-18T02:00:30;9.00;99.90
69204;DHT22;56317;27.658;85.326;2022-12-18T02:02:57;9.10;99.90
69204;DHT22;56317;27.658;85.326;2022-12-18T02:05:31;9.30;99.90
69204;DHT22;56317;27.658;85.326;2022-12-18T02:08:26;9.40;99.90
69204;DHT22;56317;27.658;85.326;2022-12-18T02:11:11;9.60;99.90
69204;DHT22;56317;27.658;85.326;2022-12-18T02:27:51;10.90;99.90
69204;DHT22;56317;27.658;85.326;2022-12-18T02:30:19;11.00;99.90
69204;DHT22;56317;27.658;85.326;2022-12-18T02:32:53;11.30;99.90
69204;DHT22;56317;27.658;85.326;2022-12-18T02:35:25;11.40;99.90
69204;DHT22;56317;27.658;85.326;2022-12-18T02:37:54;11.60;99.90
69204;DHT22;56317;27.658;85.326;2022-12-18T02:40:25;11.80;99.90
69204;DHT22;56317;27.658;85.326;2022-12-18T02:42:53;12.00;99.90
69204;DHT22;56317;27.658;85.326;2022-12-18T02:45:20;12.20;99.90
69204;DHT22;56317;27.658;85.326;2022-12-18T02:47:50;12.50;99.90
69204;DHT22;56317;27.658;85.326;2022-12-18T02:50:38;12.70;99.90
69204;DHT22;56317;27.658;85.326;2022-12-18T02:53:22;13.00;99.90
69204;DHT22;56317;27.658;85.326;2022-12-18T02:59:00;13.60;99.90
69204;DHT22;56317;27.658;85.326;2022-12-18T03:01:58;13.90;99.90
69204;DHT22;56317;27.658;85.326;2022-12-18T03:04:39;14.10;99.90
69204;DHT22;56317;27.658;85.326;2022-12-18T03:07:15;14.40;99.90
69204;DHT22;56317;27.658;85.326;2022-12-18T03:09:47;14.60;99.90
69204;DHT22;56317;27.658;85.326;2022-12-18T03:12:30;14.90;99.90
69204;DHT22;56317;27.658;85.326;2022-12-18T03:15:23;15.00;99.90
69204;DHT22;56317;27.658;85.326;2022-12-18T03:17:57;15.40;99.90
69204;DHT22;56317;27.658;85.326;2022-12-18T03:20:31;15.70;99.90
69204;DHT22;56317;27.658;85.326;2022-12-18T03:23:11;16.20;99.90
69204;DHT22;56317;27.658;85.326;2022-12-18T03:25:41;16.80;99.90
69204;DHT22;56317;27.658;85.326;2022-12-18T03:28:16;17.20;99.90
69204;DHT22;56317;27.658;85.326;2022-12-18T03:30:47;17.60;99.90
69204;DHT22;56317;27.658;85.326;2022-12-18T03:34:01;18.10;99.90
69204;DHT22;56317;27.658;85.326;2022-12-18T03:36:09;18.70;99.90
69204;DHT22;56317;27.658;85.326;2022-12-18T03:38:36;19.10;99.90
69204;DHT22;56317;27.658;85.326;2022-12-18T03:41:32;19.40;98.80
69204;DHT22;56317;27.658;85.326;2022-12-18T03:44:03;19.80;97.30
69204;DHT22;56317;27.658;85.326;2022-12-18T03:49:30;20.80;94.80
69204;DHT22;56317;27.658;85.326;2022-12-18T03:55:08;21.50;91.30
69204;DHT22;56317;27.658;85.326;2022-12-18T03:57:36;22.00;89.20
69204;DHT22;56317;27.658;85.326;2022-12-18T04:00:13;22.30;89.80
69204;DHT22;56317;27.658;85.326;2022-12-18T04:02:49;22.60;86.50
69204;DHT22;56317;27.658;85.326;2022-12-18T04:05:18;23.00;82.40
69204;DHT22;56317;27.658;85.326;2022-12-18T04:07:48;23.40;82.80
69204;DHT22;56317;27.658;85.326;2022-12-18T04:10:16;23.80;77.10
69204;DHT22;56317;27.658;85.326;2022-12-18T04:12:44;24.40;79.30
69204;DHT22;56317;27.658;85.326;2022-12-18T04:15:12;25.00;71.60
69204;DHT22;56317;27.658;85.326;2022-12-18T04:17:46;25.40;70.90
69204;DHT22;56317;27.658;85.326;2022-12-18T04:20:13;25.70;66.20
69204;DHT22;56317;27.658;85.326;2022-12-18T04:22:42;26.20;65.00
69204;DHT22;56317;27.658;85.326;2022-12-18T04:25:09;26.60;62.40
69204;DHT22;56317;27.658;85.326;2022-12-18T04:27:36;26.90;61.30
69204;DHT22;56317;27.658;85.326;2022-12-18T04:30:04;27.30;61.40
69204;DHT22;56317;27.658;85.326;2022-12-18T04:32:33;27.90;58.00
69204;DHT22;56317;27.658;85.326;2022-12-18T04:35:00;28.20;56.60
69204;DHT22;56317;27.658;85.326;2022-12-18T04:37:27;28.50;56.60
69204;DHT22;56317;27.658;85.326;2022-12-18T04:39:55;28.80;56.10
69204;DHT22;56317;27.658;85.326;2022-12-18T04:42:22;29.30;54.50
69204;DHT22;56317;27.658;85.326;2022-12-18T04:44:49;29.50;53.30
69204;DHT22;56317;27.658;85.326;2022-12-18T04:47:16;29.90;52.30
69204;DHT22;56317;27.658;85.326;2022-12-18T04:49:43;30.20;50.50
69204;DHT22;56317;27.658;85.326;2022-12-18T04:52:11;30.50;51.50
69204;DHT22;56317;27.658;85.326;2022-12-18T04:54:38;30.80;50.30
69204;DHT22;56317;27.658;85.326;2022-12-18T04:57:05;31.00;49.50
69204;DHT22;56317;27.658;85.326;2022-12-18T04:59:32;31.30;48.50
69204;DHT22;56317;27.658;85.326;2022-12-18T05:02:00;31.60;47.90
69204;DHT22;56317;27.658;85.326;2022-12-18T05:04:27;31.80;46.40
69204;DHT22;56317;27.658;85.326;2022-12-18T05:06:54;32.00;45.90
69204;DHT22;56317;27.658;85.326;2022-12-18T05:09:21;32.10;45.40
69204;DHT22;56317;27.658;85.326;2022-12-18T05:11:48;32.30;45.10
69204;DHT22;56317;27.658;85.326;2022-12-18T05:14:16;32.80;44.70
69204;DHT22;56317;27.658;85.326;2022-12-18T05:16:43;33.20;43.70
69204;DHT22;56317;27.658;85.326;2022-12-18T05:19:10;33.50;44.00
69204;DHT22;56317;27.658;85.326;2022-12-18T05:21:37;33.80;43.20
69204;DHT22;56317;27.658;85.326;2022-12-18T05:24:05;33.90;43.40
69204;DHT22;56317;27.658;85.326;2022-12-18T05:26:32;34.20;43.30
69204;DHT22;56317;27.658;85.326;2022-12-18T05:28:59;34.50;42.20
69204;DHT22;56317;27.658;85.326;2022-12-18T05:31:26;34.90;41.80
69204;DHT22;56317;27.658;85.326;2022-12-18T05:33:54;35.10;41.10
69204;DHT22;56317;27.658;85.326;2022-12-18T05:36:21;35.30;39.80
69204;DHT22;56317;27.658;85.326;2022-12-18T05:38:49;35.40;40.00
69204;DHT22;56317;27.658;85.326;2022-12-18T05:41:16;35.70;40.30
69204;DHT22;56317;27.658;85.326;2022-12-18T05:43:44;36.10;39.70
69204;DHT22;56317;27.658;85.326;2022-12-18T05:46:15;36.10;39.40
69204;DHT22;56317;27.658;85.326;2022-12-18T05:48:44;36.40;39.10
69204;DHT22;56317;27.658;85.326;2022-12-18T05:51:13;36.60;38.40
69204;DHT22;56317;27.658;85.326;2022-12-18T05:53:41;37.10;38.30
69204;DHT22;56317;27.658;85.326;2022-12-18T05:56:12;37.30;37.90
69204;DHT22;56317;27.658;85.326;2022-12-18T05:58:39;37.60;37.50
69204;DHT22;56317;27.658;85.326;2022-12-18T06:01:13;38.00;37.30
69204;DHT22;56317;27.658;85.326;2022-12-18T06:03:43;38.00;37.10
69204;DHT22;56317;27.658;85.326;2022-12-18T06:06:14;38.10;36.50
69204;DHT22;56317;27.658;85.326;2022-12-18T06:08:42;38.30;36.70
69204;DHT22;56317;27.658;85.326;2022-12-18T06:11:09;39.00;35.60
69204;DHT22;56317;27.658;85.326;2022-12-18T06:13:37;39.40;35.30
69204;DHT22;56317;27.658;85.326;2022-12-18T06:16:05;39.80;34.20
69204;DHT22;56317;27.658;85.326;2022-12-18T06:18:33;40.20;34.70
69204;DHT22;56317;27.658;85.326;2022-12-18T06:21:01;40.80;34.40
69204;DHT22;56317;27.658;85.326;2022-12-18T06:23:28;41.30;34.10
69204;DHT22;56317;27.658;85.326;2022-12-18T06:26:02;41.20;33.70
69204;DHT22;56317;27.658;85.326;2022-12-18T06:28:30;41.00;33.70
69204;DHT22;56317;27.658;85.326;2022-12-18T06:30:57;41.40;32.60
69204;DHT22;56317;27.658;85.326;2022-12-18T06:33:26;41.40;32.60
69204;DHT22;56317;27.658;85.326;2022-12-18T06:36:01;41.60;31.90
69204;DHT22;56317;27.658;85.326;2022-12-18T06:38:29;41.90;31.40
69204;DHT22;56317;27.658;85.326;2022-12-18T06:40:57;42.20;31.50
69204;DHT22;56317;27.658;85.326;2022-12-18T06:43:24;42.60;30.70
69204;DHT22;56317;27.658;85.326;2022-12-18T06:45:57;42.50;30.70
69204;DHT22;56317;27.658;85.326;2022-12-18T06:48:24;42.30;30.20
69204;DHT22;56317;27.658;85.326;2022-12-18T06:50:51;42.00;30.10
69204;DHT22;56317;27.658;85.326;2022-12-18T06:53:18;42.10;30.20
69204;DHT22;56317;27.658;85.326;2022-12-18T06:55:45;42.70;30.10
69204;DHT22;56317;27.658;85.326;2022-12-18T06:58:13;43.30;29.50
69204;DHT22;56317;27.658;85.326;2022-12-18T07:00:40;43.60;29.40
69204;DHT22;56317;27.658;85.326;2022-12-18T07:03:07;44.20;29.00
69204;DHT22;56317;27.658;85.326;2022-12-18T07:05:38;44.70;28.60
69204;DHT22;56317;27.658;85.326;2022-12-18T07:08:06;44.80;28.00
69204;DHT22;56317;27.658;85.326;2022-12-18T07:10:33;45.00;27.60
69204;DHT22;56317;27.658;85.326;2022-12-18T07:13:00;44.40;27.30
69204;DHT22;56317;27.658;85.326;2022-12-18T07:15:27;44.50;28.10
69204;DHT22;56317;27.658;85.326;2022-12-18T07:17:55;45.00;27.70
69204;DHT22;56317;27.658;85.326;2022-12-18T07:20:22;45.10;28.00
69204;DHT22;56317;27.658;85.326;2022-12-18T07:22:49;45.00;28.20
69204;DHT22;56317;27.658;85.326;2022-12-18T07:25:20;44.40;27.90
69204;DHT22;56317;27.658;85.326;2022-12-18T07:27:47;44.40;27.90
69204;DHT22;56317;27.658;85.326;2022-12-18T07:30:15;44.70;27.90
69204;DHT22;56317;27.658;85.326;2022-12-18T07:32:44;44.80;27.80
69204;DHT22;56317;27.658;85.326;2022-12-18T07:35:11;44.70;27.90
69204;DHT22;56317;27.658;85.326;2022-12-18T07:37:38;44.60;27.80
69204;DHT22;56317;27.658;85.326;2022-12-18T07:40:06;43.50;27.90
69204;DHT22;56317;27.658;85.326;2022-12-18T07:42:33;42.10;28.30
69204;DHT22;56317;27.658;85.326;2022-12-18T07:45:02;41.60;28.70
69204;DHT22;56317;27.658;85.326;2022-12-18T07:47:37;41.40;28.90
69204;DHT22;56317;27.658;85.326;2022-12-18T07:50:05;41.00;28.90
69204;DHT22;56317;27.658;85.326;2022-12-18T07:52:32;40.90;28.90
69204;DHT22;56317;27.658;85.326;2022-12-18T07:55:00;40.80;28.90
69204;DHT22;56317;27.658;85.326;2022-12-18T07:57:27;40.50;29.20
69204;DHT22;56317;27.658;85.326;2022-12-18T07:59:54;41.30;29.20
69204;DHT22;56317;27.658;85.326;2022-12-18T08:02:22;41.50;29.20
69204;DHT22;56317;27.658;85.326;2022-12-18T08:04:49;41.60;29.10
69204;DHT22;56317;27.658;85.326;2022-12-18T08:07:17;42.30;29.10
69204;DHT22;56317;27.658;85.326;2022-12-18T08:09:44;43.40;28.20
69204;DHT22;56317;27.658;85.326;2022-12-18T08:12:11;43.10;28.50
69204;DHT22;56317;27.658;85.326;2022-12-18T08:14:38;42.40;29.00
69204;DHT22;56317;27.658;85.326;2022-12-18T08:17:06;42.40;29.20
69204;DHT22;56317;27.658;85.326;2022-12-18T08:19:33;42.50;29.50
69204;DHT22;56317;27.658;85.326;2022-12-18T08:22:00;43.00;29.30
69204;DHT22;56317;27.658;85.326;2022-12-18T08:24:27;43.20;29.10
69204;DHT22;56317;27.658;85.326;2022-12-18T08:26:54;43.00;29.10
69204;DHT22;56317;27.658;85.326;2022-12-18T08:29:23;43.10;29.30
69204;DHT22;56317;27.658;85.326;2022-12-18T08:31:51;43.20;29.00
69204;DHT22;56317;27.658;85.326;2022-12-18T08:34:18;43.10;28.80
69204;DHT22;56317;27.658;85.326;2022-12-18T08:36:45;42.70;28.90
69204;DHT22;56317;27.658;85.326;2022-12-18T08:39:12;42.50;29.10
69204;DHT22;56317;27.658;85.326;2022-12-18T08:41:40;42.50;29.10
69204;DHT22;56317;27.658;85.326;2022-12-18T08:44:10;42.50;29.20
69204;DHT22;56317;27.658;85.326;2022-12-18T08:46:55;42.60;29.60
69204;DHT22;56317;27.658;85.326;2022-12-18T08:49:22;42.80;29.00
69204;DHT22;56317;27.658;85.326;2022-12-18T08:51:55;42.70;28.80
69204;DHT22;56317;27.658;85.326;2022-12-18T08:54:23;42.20;28.90
69204;DHT22;56317;27.658;85.326;2022-12-18T08:56:51;42.20;29.10
69204;DHT22;56317;27.658;85.326;2022-12-18T08:59:19;42.60;28.80
69204;DHT22;56317;27.658;85.326;2022-12-18T09:01:47;42.70;28.70
69204;DHT22;56317;27.658;85.326;2022-12-18T09:04:14;42.10;28.50
69204;DHT22;56317;27.658;85.326;2022-12-18T09:06:41;41.40;29.00
69204;DHT22;56317;27.658;85.326;2022-12-18T09:09:09;41.00;28.80
69204;DHT22;56317;27.658;85.326;2022-12-18T09:11:37;40.70;28.90
69204;DHT22;56317;27.658;85.326;2022-12-18T09:14:05;40.10;29.30
69204;DHT22;56317;27.658;85.326;2022-12-18T09:16:32;40.20;29.20
69204;DHT22;56317;27.658;85.326;2022-12-18T09:19:02;39.80;29.60
69204;DHT22;56317;27.658;85.326;2022-12-18T09:21:32;39.80;29.50
69204;DHT22;56317;27.658;85.326;2022-12-18T09:23:59;39.80;29.70
69204;DHT22;56317;27.658;85.326;2022-12-18T09:26:27;39.90;29.70
69204;DHT22;56317;27.658;85.326;2022-12-18T09:28:54;39.50;29.80
69204;DHT22;56317;27.658;85.326;2022-12-18T09:31:23;39.40;30.10
69204;DHT22;56317;27.658;85.326;2022-12-18T09:33:51;39.20;30.40
69204;DHT22;56317;27.658;85.326;2022-12-18T09:36:19;39.00;30.40
69204;DHT22;56317;27.658;85.326;2022-12-18T09:38:46;38.90;30.50
69204;DHT22;56317;27.658;85.326;2022-12-18T09:44:41;38.70;31.00
69204;DHT22;56317;27.658;85.326;2022-12-18T09:47:20;38.20;31.50
69204;DHT22;56317;27.658;85.326;2022-12-18T09:50:01;37.90;31.40
69204;DHT22;56317;27.658;85.326;2022-12-18T09:52:37;37.50;31.70
69204;DHT22;56317;27.658;85.326;2022-12-18T09:57:42;36.40;32.80
69204;DHT22;56317;27.658;85.326;2022-12-18T10:00:16;36.60;32.50
69204;DHT22;56317;27.658;85.326;2022-12-18T10:02:45;36.50;32.50
69204;DHT22;56317;27.658;85.326;2022-12-18T10:05:20;36.30;32.50
69204;DHT22;56317;27.658;85.326;2022-12-18T10:08:05;35.80;32.90
69204;DHT22;56317;27.658;85.326;2022-12-18T10:10:53;35.30;33.30
69204;DHT22;56317;27.658;85.326;2022-12-18T10:13:23;35.00;33.60
69204;DHT22;56317;27.658;85.326;2022-12-18T10:25:00;31.60;36.90
69204;DHT22;56317;27.658;85.326;2022-12-18T10:27:29;30.60;38.20
69204;DHT22;56317;27.658;85.326;2022-12-18T10:29:57;30.00;38.70
69204;DHT22;56317;27.658;85.326;2022-12-18T10:32:27;29.30;39.60
69204;DHT22;56317;27.658;85.326;2022-12-18T10:34:57;28.80;40.80
69204;DHT22;56317;27.658;85.326;2022-12-18T10:37:27;28.00;41.70
69204;DHT22;56317;27.658;85.326;2022-12-18T10:42:34;26.30;44.10
69204;DHT22;56317;27.658;85.326;2022-12-18T10:45:10;25.50;45.50
69204;DHT22;56317;27.658;85.326;2022-12-18T10:47:46;24.50;46.60
69204;DHT22;56317;27.658;85.326;2022-12-18T10:50:36;23.50;48.20
69204;DHT22;56317;27.658;85.326;2022-12-18T10:53:05;22.30;50.80
69204;DHT22;56317;27.658;85.326;2022-12-18T10:55:35;21.40;52.00
69204;DHT22;56317;27.658;85.326;2022-12-18T11:01:27;20.10;54.70
69204;DHT22;56317;27.658;85.326;2022-12-18T11:06:24;19.00;58.60
69204;DHT22;56317;27.658;85.326;2022-12-18T11:09:21;18.60;60.10
69204;DHT22;56317;27.658;85.326;2022-12-18T11:11:53;18.20;59.90
69204;DHT22;56317;27.658;85.326;2022-12-18T11:14:29;17.90;60.40
69204;DHT22;56317;27.658;85.326;2022-12-18T11:16:59;17.50;64.10
69204;DHT22;56317;27.658;85.326;2022-12-18T11:19:40;17.20;65.10
69204;DHT22;56317;27.658;85.326;2022-12-18T11:22:23;16.90;66.40
69204;DHT22;56317;27.658;85.326;2022-12-18T11:25:02;16.60;65.90
69204;DHT22;56317;27.658;85.326;2022-12-18T11:27:32;16.30;68.20
69204;DHT22;56317;27.658;85.326;2022-12-18T11:30:22;16.00;67.00
69204;DHT22;56317;27.658;85.326;2022-12-18T11:33:07;15.70;66.00
69204;DHT22;56317;27.658;85.326;2022-12-18T11:35:59;15.50;69.50
69204;DHT22;56317;27.658;85.326;2022-12-18T11:38:40;15.30;69.30
69204;DHT22;56317;27.658;85.326;2022-12-18T11:41:21;15.20;69.90
69204;DHT22;56317;27.658;85.326;2022-12-18T11:44:13;15.00;72.20
69204;DHT22;56317;27.658;85.326;2022-12-18T11:46:58;15.00;73.60
69204;DHT22;56317;27.658;85.326;2022-12-18T11:49:32;14.80;73.00
69204;DHT22;56317;27.658;85.326;2022-12-18T11:52:15;14.80;73.30
69204;DHT22;56317;27.658;85.326;2022-12-18T11:54:43;14.70;74.40
69204;DHT22;56317;27.658;85.326;2022-12-18T11:57:34;14.60;74.60
69204;DHT22;56317;27.658;85.326;2022-12-18T12:08:06;14.30;78.10
69204;DHT22;56317;27.658;85.326;2022-12-18T12:16:23;14.10;79.00
69204;DHT22;56317;27.658;85.326;2022-12-18T12:21:53;13.90;81.70
69204;DHT22;56317;27.658;85.326;2022-12-18T12:27:42;13.80;83.00
69204;DHT22;56317;27.658;85.326;2022-12-18T12:30:20;13.70;82.00
69204;DHT22;56317;27.658;85.326;2022-12-18T12:33:06;13.60;85.10
69204;DHT22;56317;27.658;85.326;2022-12-18T12:38:26;13.70;85.40
69204;DHT22;56317;27.658;85.326;2022-12-18T12:41:05;13.70;87.50
69204;DHT22;56317;27.658;85.326;2022-12-18T12:43:53;13.60;89.00
69204;DHT22;56317;27.658;85.326;2022-12-18T12:46:24;13.60;90.00
69204;DHT22;56317;27.658;85.326;2022-12-18T12:48:58;13.60;90.00
69204;DHT22;56317;27.658;85.326;2022-12-18T12:51:40;13.60;90.20
69204;DHT22;56317;27.658;85.326;2022-12-18T12:54:24;13.50;90.50
69204;DHT22;56317;27.658;85.326;2022-12-18T13:05:23;13.40;92.20
69204;DHT22;56317;27.658;85.326;2022-12-18T13:07:53;13.40;92.50
69204;DHT22;56317;27.658;85.326;2022-12-18T13:10:25;13.30;92.70
69204;DHT22;56317;27.658;85.326;2022-12-18T13:15:45;13.20;93.00
69204;DHT22;56317;27.658;85.326;2022-12-18T13:18:14;13.10;93.20
69204;DHT22;56317;27.658;85.326;2022-12-18T13:20:50;13.10;93.50
69204;DHT22;56317;27.658;85.326;2022-12-18T13:23:30;13.00;93.60
69204;DHT22;56317;27.658;85.326;2022-12-18T13:26:00;12.80;94.00
69204;DHT22;56317;27.658;85.326;2022-12-18T13:34:25;12.60;95.20
69204;DHT22;56317;27.658;85.326;2022-12-18T13:36:53;12.40;95.70
69204;DHT22;56317;27.658;85.326;2022-12-18T13:39:24;12.30;96.10
69204;DHT22;56317;27.658;85.326;2022-12-18T13:44:34;12.20;97.40
69204;DHT22;56317;27.658;85.326;2022-12-18T13:47:05;12.10;97.50
69204;DHT22;56317;27.658;85.326;2022-12-18T13:49:51;12.00;97.90
69204;DHT22;56317;27.658;85.326;2022-12-18T13:52:27;11.90;98.40
69204;DHT22;56317;27.658;85.326;2022-12-18T13:55:00;11.90;99.50
69204;DHT22;56317;27.658;85.326;2022-12-18T13:57:33;11.80;99.90
69204;DHT22;56317;27.658;85.326;2022-12-18T14:02:50;11.80;99.90
69204;DHT22;56317;27.658;85.326;2022-12-18T14:05:29;11.80;99.90
69204;DHT22;56317;27.658;85.326;2022-12-18T14:08:10;11.70;99.90
69204;DHT22;56317;27.658;85.326;2022-12-18T14:10:45;11.60;99.90
69204;DHT22;56317;27.658;85.326;2022-12-18T14:13:28;11.50;99.90
69204;DHT22;56317;27.658;85.326;2022-12-18T14:15:57;11.40;99.90
69204;DHT22;56317;27.658;85.326;2022-12-18T14:18:51;11.30;99.90
69204;DHT22;56317;27.658;85.326;2022-12-18T14:21:26;11.30;99.90
69204;DHT22;56317;27.658;85.326;2022-12-18T14:24:19;11.20;99.90
69204;DHT22;56317;27.658;85.326;2022-12-18T14:26:50;11.10;99.90
69204;DHT22;56317;27.658;85.326;2022-12-18T14:29:29;11.10;99.90
69204;DHT22;56317;27.658;85.326;2022-12-18T14:32:10;11.10;99.90
69204;DHT22;56317;27.658;85.326;2022-12-18T14:34:38;11.10;99.90
69204;DHT22;56317;27.658;85.326;2022-12-18T14:37:09;11.10;99.90
69204;DHT22;56317;27.658;85.326;2022-12-18T14:39:36;11.10;99.90
69204;DHT22;56317;27.658;85.326;2022-12-18T14:42:03;11.00;99.90
69204;DHT22;56317;27.658;85.326;2022-12-18T14:44:30;11.00;99.90
69204;DHT22;56317;27.658;85.326;2022-12-18T14:46:58;11.00;99.90
69204;DHT22;56317;27.658;85.326;2022-12-18T14:49:31;10.90;99.90
69204;DHT22;56317;27.658;85.326;2022-12-18T14:52:04;10.90;99.90
69204;DHT22;56317;27.658;85.326;2022-12-18T14:54:34;10.80;99.90
69204;DHT22;56317;27.658;85.326;2022-12-18T14:59:32;10.70;99.90
69204;DHT22;56317;27.658;85.326;2022-12-18T15:04:47;10.60;99.90
69204;DHT22;56317;27.658;85.326;2022-12-18T15:07:22;10.50;99.90
69204;DHT22;56317;27.658;85.326;2022-12-18T15:12:43;10.50;99.90
69204;DHT22;56317;27.658;85.326;2022-12-18T15:23:33;10.30;99.90
69204;DHT22;56317;27.658;85.326;2022-12-18T15:26:06;10.20;99.90
69204;DHT22;56317;27.658;85.326;2022-12-18T15:28:39;10.10;99.90
69204;DHT22;56317;27.658;85.326;2022-12-18T15:33:44;10.10;99.90
69204;DHT22;56317;27.658;85.326;2022-12-18T15:36:17;10.10;99.90
69204;DHT22;56317;27.658;85.326;2022-12-18T15:38:48;10.10;99.90
69204;DHT22;56317;27.658;85.326;2022-12-18T15:41:18;10.00;99.90
69204;DHT22;56317;27.658;85.326;2022-12-18T15:43:48;10.00;99.90
69204;DHT22;56317;27.658;85.326;2022-12-18T15:46:17;10.00;99.90
69204;DHT22;56317;27.658;85.326;2022-12-18T15:48:50;10.00;99.90
69204;DHT22;56317;27.658;85.326;2022-12-18T15:51:28;10.00;99.90
69204;DHT22;56317;27.658;85.326;2022-12-18T15:53:58;10.00;99.90
69204;DHT22;56317;27.658;85.326;2022-12-18T15:56:26;10.00;99.90
69204;DHT22;56317;27.658;85.326;2022-12-18T15:59:13;9.90;99.90
69204;DHT22;56317;27.658;85.326;2022-12-18T16:01:43;9.90;99.90
69204;DHT22;56317;27.658;85.326;2022-12-18T16:04:15;9.90;99.90
69204;DHT22;56317;27.658;85.326;2022-12-18T16:06:43;9.90;99.90
69204;DHT22;56317;27.658;85.326;2022-12-18T16:09:10;9.80;99.90
69204;DHT22;56317;27.658;85.326;2022-12-18T16:11:39;9.80;99.90
69204;DHT22;56317;27.658;85.326;2022-12-18T16:14:28;9.80;99.90
69204;DHT22;56317;27.658;85.326;2022-12-18T16:17:01;9.70;99.90
69204;DHT22;56317;27.658;85.326;2022-12-18T16:19:29;9.70;99.90
69204;DHT22;56317;27.658;85.326;2022-12-18T16:21:58;9.70;99.90
69204;DHT22;56317;27.658;85.326;2022-12-18T16:24:28;9.70;99.90
69204;DHT22;56317;27.658;85.326;2022-12-18T16:26:57;9.60;99.90
69204;DHT22;56317;27.658;85.326;2022-12-18T16:29:26;9.60;99.90
69204;DHT22;56317;27.658;85.326;2022-12-18T16:31:58;9.60;99.90
69204;DHT22;56317;27.658;85.326;2022-12-18T16:34:30;9.60;99.90
69204;DHT22;56317;27.658;85.326;2022-12-18T16:37:04;9.50;99.90
69204;DHT22;56317;27.658;85.326;2022-12-18T16:39:33;9.50;99.90
69204;DHT22;56317;27.658;85.326;2022-12-18T16:42:19;9.50;99.90
69204;DHT22;56317;27.658;85.326;2022-12-18T16:44:47;9.50;99.90
69204;DHT22;56317;27.658;85.326;2022-12-18T16:47:15;9.40;99.90
69204;DHT22;56317;27.658;85.326;2022-12-18T16:49:43;9.40;99.90
69204;DHT22;56317;27.658;85.326;2022-12-18T16:52:11;9.30;99.90
69204;DHT22;56317;27.658;85.326;2022-12-18T16:54:39;9.40;99.90
69204;DHT22;56317;27.658;85.326;2022-12-18T16:57:06;9.30;99.90
69204;DHT22;56317;27.658;85.326;2022-12-18T16:59:33;9.30;99.90
69204;DHT22;56317;27.658;85.326;2022-12-18T17:02:00;9.30;99.90
69204;DHT22;56317;27.658;85.326;2022-12-18T17:04:31;9.30;99.90
69204;DHT22;56317;27.658;85.326;2022-12-18T17:06:59;9.30;99.90
69204;DHT22;56317;27.658;85.326;2022-12-18T17:09:26;9.20;99.90
69204;DHT22;56317;27.658;85.326;2022-12-18T17:11:54;9.20;99.90
69204;DHT22;56317;27.658;85.326;2022-12-18T17:14:23;9.20;99.90
69204;DHT22;56317;27.658;85.326;2022-12-18T17:16:51;9.10;99.90
69204;DHT22;56317;27.658;85.326;2022-12-18T17:19:19;9.10;99.90
69204;DHT22;56317;27.658;85.326;2022-12-18T17:21:50;9.10;99.90
69204;DHT22;56317;27.658;85.326;2022-12-18T17:24:18;9.10;99.90
69204;DHT22;56317;27.658;85.326;2022-12-18T17:26:46;9.10;99.90
69204;DHT22;56317;27.658;85.326;2022-12-18T17:29:15;9.10;99.90
69204;DHT22;56317;27.658;85.326;2022-12-18T17:31:43;9.10;99.90
69204;DHT22;56317;27.658;85.326;2022-12-18T17:34:11;9.00;99.90
69204;DHT22;56317;27.658;85.326;2022-12-18T17:36:39;9.00;99.90
69204;DHT22;56317;27.658;85.326;2022-12-18T17:39:07;9.00;99.90
69204;DHT22;56317;27.658;85.326;2022-12-18T17:41:35;9.00;99.90
69204;DHT22;56317;27.658;85.326;2022-12-18T17:44:04;9.00;99.90